sensor_id;sensor_type;location;lat;lon;timestamp;P1;durP1;ratioP1;P2;durP2;ratioP2
48751;SDS011;34544;48.836;9.174;2023-09-19T00:02:18;1.05;;;0.70;;
48751;SDS011;34544;48.836;9.174;2023-09-19T00:04:43;2.72;;;0.73;;
48751;SDS011;34544;48.836;9.174;2023-09-19T00:07:09;1.40;;;0.80;;
48751;SDS011;34544;48.836;9.174;2023-09-19T00:09:35;1.10;;;0.50;;
48751;SDS011;34544;48.836;9.174;2023-09-19T00:12:04;0.93;;;0.60;;
48751;SDS011;34544;48.836;9.174;2023-09-19T00:14:32;1.02;;;0.75;;
48751;SDS011;34544;48.836;9.174;2023-09-19T00:17:04;3.45;;;0.90;;
48751;SDS011;34544;48.836;9.174;2023-09-19T00:19:34;0.63;;;0.52;;
48751;SDS011;34544;48.836;9.174;2023-09-19T00:22:01;3.35;;;1.02;;
48751;SDS011;34544;48.836;9.174;2023-09-19T00:24:27;0.68;;;0.63;;
48751;SDS011;34544;48.836;9.174;2023-09-19T00:26:53;1.30;;;0.70;;
48751;SDS011;34544;48.836;9.174;2023-09-19T00:29:21;1.98;;;0.70;;
48751;SDS011;34544;48.836;9.174;2023-09-19T00:31:49;3.78;;;0.68;;
48751;SDS011;34544;48.836;9.174;2023-09-19T00:34:15;2.75;;;0.70;;
48751;SDS011;34544;48.836;9.174;2023-09-19T00:36:43;2.08;;;0.93;;
48751;SDS011;34544;48.836;9.174;2023-09-19T00:39:10;2.28;;;0.52;;
48751;SDS011;34544;48.836;9.174;2023-09-19T00:41:35;3.08;;;0.60;;
48751;SDS011;34544;48.836;9.174;2023-09-19T00:44:02;3.08;;;0.73;;
48751;SDS011;34544;48.836;9.174;2023-09-19T00:46:29;1.73;;;0.77;;
48751;SDS011;34544;48.836;9.174;2023-09-19T00:48:57;1.67;;;0.60;;
48751;SDS011;34544;48.836;9.174;2023-09-19T00:51:24;4.10;;;0.90;;
48751;SDS011;34544;48.836;9.174;2023-09-19T00:53:51;1.23;;;0.60;;
48751;SDS011;34544;48.836;9.174;2023-09-19T00:56:18;2.47;;;0.70;;
48751;SDS011;34544;48.836;9.174;2023-09-19T00:58:44;0.88;;;0.65;;
48751;SDS011;34544;48.836;9.174;2023-09-19T01:01:12;1.15;;;0.60;;
48751;SDS011;34544;48.836;9.174;2023-09-19T01:03:40;1.00;;;0.52;;
48751;SDS011;34544;48.836;9.174;2023-09-19T01:06:07;1.70;;;0.50;;
48751;SDS011;34544;48.836;9.174;2023-09-19T01:08:34;2.88;;;0.85;;
48751;SDS011;34544;48.836;9.174;2023-09-19T01:11:15;1.75;;;0.63;;
48751;SDS011;34544;48.836;9.174;2023-09-19T01:16:35;2.50;;;0.90;;
48751;SDS011;34544;48.836;9.174;2023-09-19T01:22:21;3.92;;;0.85;;
48751;SDS011;34544;48.836;9.174;2023-09-19T01:28:29;1.92;;;1.27;;
48751;SDS011;34544;48.836;9.174;2023-09-19T01:30:52;1.30;;;0.70;;
48751;SDS011;34544;48.836;9.174;2023-09-19T01:33:23;1.80;;;0.75;;
48751;SDS011;34544;48.836;9.174;2023-09-19T01:35:48;2.67;;;1.33;;
48751;SDS011;34544;48.836;9.174;2023-09-19T01:38:15;2.28;;;0.80;;
48751;SDS011;34544;48.836;9.174;2023-09-19T01:40:42;1.60;;;0.60;;
48751;SDS011;34544;48.836;9.174;2023-09-19T01:43:20;2.60;;;0.90;;
48751;SDS011;34544;48.836;9.174;2023-09-19T01:46:15;3.17;;;0.60;;
48751;SDS011;34544;48.836;9.174;2023-09-19T01:48:54;4.15;;;0.80;;
48751;SDS011;34544;48.836;9.174;2023-09-19T01:51:37;1.35;;;0.60;;
48751;SDS011;34544;48.836;9.174;2023-09-19T01:54:12;3.50;;;0.55;;
48751;SDS011;34544;48.836;9.174;2023-09-19T01:56:44;1.58;;;0.82;;
48751;SDS011;34544;48.836;9.174;2023-09-19T01:59:16;1.58;;;0.50;;
48751;SDS011;34544;48.836;9.174;2023-09-19T02:01:46;1.73;;;1.25;;
48751;SDS011;34544;48.836;9.174;2023-09-19T02:04:14;1.02;;;0.50;;
48751;SDS011;34544;48.836;9.174;2023-09-19T02:06:40;1.27;;;0.50;;
48751;SDS011;34544;48.836;9.174;2023-09-19T02:09:07;2.30;;;0.70;;
48751;SDS011;34544;48.836;9.174;2023-09-19T02:11:33;0.93;;;0.50;;
48751;SDS011;34544;48.836;9.174;2023-09-19T02:14:00;0.95;;;0.50;;
48751;SDS011;34544;48.836;9.174;2023-09-19T02:16:26;0.90;;;0.63;;
48751;SDS011;34544;48.836;9.174;2023-09-19T02:18:53;0.32;;;0.32;;
48751;SDS011;34544;48.836;9.174;2023-09-19T02:21:19;0.63;;;0.50;;
48751;SDS011;34544;48.836;9.174;2023-09-19T02:23:47;0.57;;;0.50;;
48751;SDS011;34544;48.836;9.174;2023-09-19T02:26:12;0.52;;;0.40;;
48751;SDS011;34544;48.836;9.174;2023-09-19T02:28:40;1.65;;;0.73;;
48751;SDS011;34544;48.836;9.174;2023-09-19T02:31:07;0.85;;;0.60;;
48751;SDS011;34544;48.836;9.174;2023-09-19T02:33:33;1.00;;;0.60;;
48751;SDS011;34544;48.836;9.174;2023-09-19T02:36:00;0.88;;;0.60;;
48751;SDS011;34544;48.836;9.174;2023-09-19T02:38:26;0.93;;;0.65;;
48751;SDS011;34544;48.836;9.174;2023-09-19T02:40:52;1.45;;;1.15;;
48751;SDS011;34544;48.836;9.174;2023-09-19T02:43:20;2.33;;;0.82;;
48751;SDS011;34544;48.836;9.174;2023-09-19T02:45:48;1.90;;;0.60;;
48751;SDS011;34544;48.836;9.174;2023-09-19T02:48:15;4.05;;;1.10;;
48751;SDS011;34544;48.836;9.174;2023-09-19T02:50:42;0.88;;;0.50;;
48751;SDS011;34544;48.836;9.174;2023-09-19T02:53:09;0.95;;;0.60;;
48751;SDS011;34544;48.836;9.174;2023-09-19T02:55:37;1.58;;;0.90;;
48751;SDS011;34544;48.836;9.174;2023-09-19T02:58:05;2.42;;;0.57;;
48751;SDS011;34544;48.836;9.174;2023-09-19T03:00:33;1.52;;;0.85;;
48751;SDS011;34544;48.836;9.174;2023-09-19T03:03:00;1.40;;;0.88;;
48751;SDS011;34544;48.836;9.174;2023-09-19T03:05:27;0.98;;;0.57;;
48751;SDS011;34544;48.836;9.174;2023-09-19T03:07:56;4.93;;;0.85;;
48751;SDS011;34544;48.836;9.174;2023-09-19T03:10:22;0.70;;;0.60;;
48751;SDS011;34544;48.836;9.174;2023-09-19T03:12:50;1.42;;;0.40;;
48751;SDS011;34544;48.836;9.174;2023-09-19T03:15:17;2.05;;;0.73;;
48751;SDS011;34544;48.836;9.174;2023-09-19T03:17:45;4.90;;;0.95;;
48751;SDS011;34544;48.836;9.174;2023-09-19T03:20:14;0.93;;;0.60;;
48751;SDS011;34544;48.836;9.174;2023-09-19T03:22:42;1.13;;;0.73;;
48751;SDS011;34544;48.836;9.174;2023-09-19T03:25:09;1.95;;;0.82;;
48751;SDS011;34544;48.836;9.174;2023-09-19T03:27:39;1.30;;;0.98;;
48751;SDS011;34544;48.836;9.174;2023-09-19T03:30:06;3.20;;;0.73;;
48751;SDS011;34544;48.836;9.174;2023-09-19T03:32:34;2.30;;;0.60;;
48751;SDS011;34544;48.836;9.174;2023-09-19T03:35:01;1.63;;;0.80;;
48751;SDS011;34544;48.836;9.174;2023-09-19T03:37:31;1.25;;;1.02;;
48751;SDS011;34544;48.836;9.174;2023-09-19T03:39:58;1.70;;;0.60;;
48751;SDS011;34544;48.836;9.174;2023-09-19T03:42:24;1.70;;;0.70;;
48751;SDS011;34544;48.836;9.174;2023-09-19T03:44:52;2.45;;;0.88;;
48751;SDS011;34544;48.836;9.174;2023-09-19T03:47:18;1.75;;;0.80;;
48751;SDS011;34544;48.836;9.174;2023-09-19T03:49:47;3.10;;;0.80;;
48751;SDS011;34544;48.836;9.174;2023-09-19T03:52:13;1.08;;;0.55;;
48751;SDS011;34544;48.836;9.174;2023-09-19T03:54:41;2.47;;;1.08;;
48751;SDS011;34544;48.836;9.174;2023-09-19T03:57:07;1.77;;;1.02;;
48751;SDS011;34544;48.836;9.174;2023-09-19T03:59:32;1.25;;;0.60;;
48751;SDS011;34544;48.836;9.174;2023-09-19T04:01:58;0.93;;;0.80;;
48751;SDS011;34544;48.836;9.174;2023-09-19T04:04:24;1.58;;;1.10;;
48751;SDS011;34544;48.836;9.174;2023-09-19T04:06:53;2.63;;;0.65;;
48751;SDS011;34544;48.836;9.174;2023-09-19T04:09:19;0.60;;;0.60;;
48751;SDS011;34544;48.836;9.174;2023-09-19T04:11:44;1.13;;;0.98;;
48751;SDS011;34544;48.836;9.174;2023-09-19T04:14:10;2.70;;;1.20;;
48751;SDS011;34544;48.836;9.174;2023-09-19T04:16:36;0.90;;;0.63;;
48751;SDS011;34544;48.836;9.174;2023-09-19T04:19:04;2.80;;;1.10;;
48751;SDS011;34544;48.836;9.174;2023-09-19T04:21:30;1.60;;;1.10;;
48751;SDS011;34544;48.836;9.174;2023-09-19T04:23:57;3.50;;;1.10;;
48751;SDS011;34544;48.836;9.174;2023-09-19T04:26:23;3.88;;;0.85;;
48751;SDS011;34544;48.836;9.174;2023-09-19T04:28:49;2.13;;;1.00;;
48751;SDS011;34544;48.836;9.174;2023-09-19T04:31:15;1.30;;;0.90;;
48751;SDS011;34544;48.836;9.174;2023-09-19T04:33:41;4.93;;;1.08;;
48751;SDS011;34544;48.836;9.174;2023-09-19T04:36:08;1.25;;;1.00;;
48751;SDS011;34544;48.836;9.174;2023-09-19T04:38:35;5.03;;;0.90;;
48751;SDS011;34544;48.836;9.174;2023-09-19T04:41:00;1.88;;;1.17;;
48751;SDS011;34544;48.836;9.174;2023-09-19T04:43:26;2.50;;;1.05;;
48751;SDS011;34544;48.836;9.174;2023-09-19T04:45:52;1.85;;;0.80;;
48751;SDS011;34544;48.836;9.174;2023-09-19T04:48:24;3.63;;;1.00;;
48751;SDS011;34544;48.836;9.174;2023-09-19T04:50:49;3.60;;;1.90;;
48751;SDS011;34544;48.836;9.174;2023-09-19T04:53:16;1.50;;;1.02;;
48751;SDS011;34544;48.836;9.174;2023-09-19T04:55:42;2.83;;;1.10;;
48751;SDS011;34544;48.836;9.174;2023-09-19T04:58:08;2.22;;;0.80;;
48751;SDS011;34544;48.836;9.174;2023-09-19T05:00:35;1.65;;;0.90;;
48751;SDS011;34544;48.836;9.174;2023-09-19T05:03:00;1.52;;;1.00;;
48751;SDS011;34544;48.836;9.174;2023-09-19T05:05:29;5.47;;;0.82;;
48751;SDS011;34544;48.836;9.174;2023-09-19T05:07:55;1.83;;;1.02;;
48751;SDS011;34544;48.836;9.174;2023-09-19T05:10:21;2.15;;;1.13;;
48751;SDS011;34544;48.836;9.174;2023-09-19T05:12:47;2.08;;;1.33;;
48751;SDS011;34544;48.836;9.174;2023-09-19T05:15:13;2.90;;;1.40;;
48751;SDS011;34544;48.836;9.174;2023-09-19T05:17:40;3.30;;;1.40;;
48751;SDS011;34544;48.836;9.174;2023-09-19T05:20:05;3.00;;;1.10;;
48751;SDS011;34544;48.836;9.174;2023-09-19T05:22:39;2.83;;;1.65;;
48751;SDS011;34544;48.836;9.174;2023-09-19T05:25:06;3.20;;;1.00;;
48751;SDS011;34544;48.836;9.174;2023-09-19T05:27:32;3.97;;;1.25;;
48751;SDS011;34544;48.836;9.174;2023-09-19T05:29:58;1.98;;;1.10;;
48751;SDS011;34544;48.836;9.174;2023-09-19T05:32:24;11.15;;;1.50;;
48751;SDS011;34544;48.836;9.174;2023-09-19T05:34:50;2.35;;;1.05;;
48751;SDS011;34544;48.836;9.174;2023-09-19T05:37:18;2.88;;;0.95;;
48751;SDS011;34544;48.836;9.174;2023-09-19T05:39:45;4.40;;;1.48;;
48751;SDS011;34544;48.836;9.174;2023-09-19T05:42:11;4.40;;;2.30;;
48751;SDS011;34544;48.836;9.174;2023-09-19T05:44:36;4.30;;;1.70;;
48751;SDS011;34544;48.836;9.174;2023-09-19T05:47:02;2.75;;;1.50;;
48751;SDS011;34544;48.836;9.174;2023-09-19T05:49:28;1.67;;;1.20;;
48751;SDS011;34544;48.836;9.174;2023-09-19T05:51:54;3.50;;;1.38;;
48751;SDS011;34544;48.836;9.174;2023-09-19T05:54:21;1.10;;;1.00;;
48751;SDS011;34544;48.836;9.174;2023-09-19T05:56:47;6.00;;;1.38;;
48751;SDS011;34544;48.836;9.174;2023-09-19T05:59:14;9.25;;;1.65;;
48751;SDS011;34544;48.836;9.174;2023-09-19T06:01:41;3.13;;;1.50;;
48751;SDS011;34544;48.836;9.174;2023-09-19T06:04:07;2.35;;;1.40;;
48751;SDS011;34544;48.836;9.174;2023-09-19T06:06:33;3.13;;;1.70;;
48751;SDS011;34544;48.836;9.174;2023-09-19T06:09:04;3.58;;;1.40;;
48751;SDS011;34544;48.836;9.174;2023-09-19T06:11:36;3.13;;;2.42;;
48751;SDS011;34544;48.836;9.174;2023-09-19T06:14:02;2.22;;;1.38;;
48751;SDS011;34544;48.836;9.174;2023-09-19T06:16:29;2.60;;;1.50;;
48751;SDS011;34544;48.836;9.174;2023-09-19T06:18:55;4.28;;;2.20;;
48751;SDS011;34544;48.836;9.174;2023-09-19T06:21:24;4.10;;;1.55;;
48751;SDS011;34544;48.836;9.174;2023-09-19T06:23:49;3.92;;;1.55;;
48751;SDS011;34544;48.836;9.174;2023-09-19T06:26:15;9.13;;;2.20;;
48751;SDS011;34544;48.836;9.174;2023-09-19T06:28:42;2.95;;;1.90;;
48751;SDS011;34544;48.836;9.174;2023-09-19T06:31:09;3.20;;;1.50;;
48751;SDS011;34544;48.836;9.174;2023-09-19T06:33:37;1.95;;;1.33;;
48751;SDS011;34544;48.836;9.174;2023-09-19T06:36:04;3.25;;;1.70;;
48751;SDS011;34544;48.836;9.174;2023-09-19T06:38:31;3.42;;;1.70;;
48751;SDS011;34544;48.836;9.174;2023-09-19T06:40:59;3.97;;;2.05;;
48751;SDS011;34544;48.836;9.174;2023-09-19T06:43:34;4.68;;;1.90;;
48751;SDS011;34544;48.836;9.174;2023-09-19T06:46:00;6.28;;;2.28;;
48751;SDS011;34544;48.836;9.174;2023-09-19T06:48:27;7.18;;;2.13;;
48751;SDS011;34544;48.836;9.174;2023-09-19T06:50:54;5.95;;;1.50;;
48751;SDS011;34544;48.836;9.174;2023-09-19T06:53:20;5.40;;;2.20;;
48751;SDS011;34544;48.836;9.174;2023-09-19T06:55:48;3.58;;;2.08;;
48751;SDS011;34544;48.836;9.174;2023-09-19T06:58:15;5.93;;;2.10;;
48751;SDS011;34544;48.836;9.174;2023-09-19T07:00:41;3.50;;;1.40;;
48751;SDS011;34544;48.836;9.174;2023-09-19T07:03:08;1.92;;;1.00;;
48751;SDS011;34544;48.836;9.174;2023-09-19T07:05:37;4.93;;;1.25;;
48751;SDS011;34544;48.836;9.174;2023-09-19T07:08:06;1.95;;;0.85;;
48751;SDS011;34544;48.836;9.174;2023-09-19T07:10:33;2.22;;;1.30;;
48751;SDS011;34544;48.836;9.174;2023-09-19T07:12:59;3.05;;;1.58;;
48751;SDS011;34544;48.836;9.174;2023-09-19T07:15:26;3.13;;;1.42;;
48751;SDS011;34544;48.836;9.174;2023-09-19T07:17:53;4.82;;;1.73;;
48751;SDS011;34544;48.836;9.174;2023-09-19T07:20:21;4.82;;;1.60;;
48751;SDS011;34544;48.836;9.174;2023-09-19T07:22:51;3.15;;;1.33;;
48751;SDS011;34544;48.836;9.174;2023-09-19T07:25:16;3.38;;;1.25;;
48751;SDS011;34544;48.836;9.174;2023-09-19T07:27:42;5.82;;;1.80;;
48751;SDS011;34544;48.836;9.174;2023-09-19T07:30:09;3.63;;;1.27;;
48751;SDS011;34544;48.836;9.174;2023-09-19T07:32:35;3.88;;;1.80;;
48751;SDS011;34544;48.836;9.174;2023-09-19T07:35:06;3.13;;;1.50;;
48751;SDS011;34544;48.836;9.174;2023-09-19T07:37:32;3.47;;;1.30;;
48751;SDS011;34544;48.836;9.174;2023-09-19T07:40:04;4.75;;;1.67;;
48751;SDS011;34544;48.836;9.174;2023-09-19T07:42:34;3.20;;;1.20;;
48751;SDS011;34544;48.836;9.174;2023-09-19T07:45:02;3.80;;;1.52;;
48751;SDS011;34544;48.836;9.174;2023-09-19T07:47:28;3.83;;;1.48;;
48751;SDS011;34544;48.836;9.174;2023-09-19T07:49:55;3.45;;;1.17;;
48751;SDS011;34544;48.836;9.174;2023-09-19T07:52:21;2.75;;;1.75;;
48751;SDS011;34544;48.836;9.174;2023-09-19T07:54:48;5.30;;;1.42;;
48751;SDS011;34544;48.836;9.174;2023-09-19T07:57:14;3.17;;;1.20;;
48751;SDS011;34544;48.836;9.174;2023-09-19T07:59:41;3.83;;;1.10;;
48751;SDS011;34544;48.836;9.174;2023-09-19T08:02:07;2.63;;;1.27;;
48751;SDS011;34544;48.836;9.174;2023-09-19T08:04:40;4.30;;;1.33;;
48751;SDS011;34544;48.836;9.174;2023-09-19T08:07:11;2.72;;;1.35;;
48751;SDS011;34544;48.836;9.174;2023-09-19T08:09:38;2.78;;;1.23;;
48751;SDS011;34544;48.836;9.174;2023-09-19T08:12:04;1.25;;;1.10;;
48751;SDS011;34544;48.836;9.174;2023-09-19T08:14:32;2.75;;;1.10;;
48751;SDS011;34544;48.836;9.174;2023-09-19T08:16:59;2.30;;;0.90;;
48751;SDS011;34544;48.836;9.174;2023-09-19T08:19:25;4.75;;;1.70;;
48751;SDS011;34544;48.836;9.174;2023-09-19T08:21:56;2.78;;;1.40;;
48751;SDS011;34544;48.836;9.174;2023-09-19T08:24:26;3.22;;;0.90;;
48751;SDS011;34544;48.836;9.174;2023-09-19T08:26:53;2.45;;;1.00;;
48751;SDS011;34544;48.836;9.174;2023-09-19T08:29:20;2.30;;;1.00;;
48751;SDS011;34544;48.836;9.174;2023-09-19T08:31:46;4.15;;;1.10;;
48751;SDS011;34544;48.836;9.174;2023-09-19T08:34:16;2.88;;;0.93;;
48751;SDS011;34544;48.836;9.174;2023-09-19T08:36:41;7.00;;;0.80;;
48751;SDS011;34544;48.836;9.174;2023-09-19T08:39:09;4.03;;;1.40;;
48751;SDS011;34544;48.836;9.174;2023-09-19T08:41:34;2.58;;;1.63;;
48751;SDS011;34544;48.836;9.174;2023-09-19T08:44:00;7.57;;;1.40;;
48751;SDS011;34544;48.836;9.174;2023-09-19T08:46:27;1.20;;;1.05;;
48751;SDS011;34544;48.836;9.174;2023-09-19T08:49:08;3.13;;;1.30;;
48751;SDS011;34544;48.836;9.174;2023-09-19T08:51:42;1.77;;;0.93;;
48751;SDS011;34544;48.836;9.174;2023-09-19T08:54:32;1.13;;;0.73;;
48751;SDS011;34544;48.836;9.174;2023-09-19T08:57:00;3.55;;;1.05;;
48751;SDS011;34544;48.836;9.174;2023-09-19T08:59:37;0.95;;;0.70;;
48751;SDS011;34544;48.836;9.174;2023-09-19T09:02:08;1.48;;;1.00;;
48751;SDS011;34544;48.836;9.174;2023-09-19T09:04:38;3.03;;;1.17;;
48751;SDS011;34544;48.836;9.174;2023-09-19T09:07:11;3.95;;;1.95;;
48751;SDS011;34544;48.836;9.174;2023-09-19T09:09:44;2.53;;;1.00;;
48751;SDS011;34544;48.836;9.174;2023-09-19T09:12:13;2.13;;;1.02;;
48751;SDS011;34544;48.836;9.174;2023-09-19T09:14:40;1.20;;;0.85;;
48751;SDS011;34544;48.836;9.174;2023-09-19T09:17:11;1.27;;;0.80;;
48751;SDS011;34544;48.836;9.174;2023-09-19T09:19:37;2.78;;;0.80;;
48751;SDS011;34544;48.836;9.174;2023-09-19T09:22:09;2.40;;;0.98;;
48751;SDS011;34544;48.836;9.174;2023-09-19T09:24:36;1.85;;;0.95;;
48751;SDS011;34544;48.836;9.174;2023-09-19T09:27:05;1.00;;;0.85;;
48751;SDS011;34544;48.836;9.174;2023-09-19T09:29:45;1.67;;;0.93;;
48751;SDS011;34544;48.836;9.174;2023-09-19T09:34:52;2.65;;;1.30;;
48751;SDS011;34544;48.836;9.174;2023-09-19T09:37:20;2.17;;;1.00;;
48751;SDS011;34544;48.836;9.174;2023-09-19T09:39:59;1.38;;;0.98;;
48751;SDS011;34544;48.836;9.174;2023-09-19T09:42:44;1.45;;;0.80;;
48751;SDS011;34544;48.836;9.174;2023-09-19T09:45:21;1.45;;;0.82;;
48751;SDS011;34544;48.836;9.174;2023-09-19T09:48:02;2.03;;;0.80;;
48751;SDS011;34544;48.836;9.174;2023-09-19T09:50:29;1.92;;;0.98;;
48751;SDS011;34544;48.836;9.174;2023-09-19T09:58:26;1.98;;;0.82;;
48751;SDS011;34544;48.836;9.174;2023-09-19T10:00:55;2.47;;;0.90;;
48751;SDS011;34544;48.836;9.174;2023-09-19T10:03:31;1.80;;;0.90;;
48751;SDS011;34544;48.836;9.174;2023-09-19T10:05:59;1.40;;;0.90;;
48751;SDS011;34544;48.836;9.174;2023-09-19T10:08:28;1.35;;;1.05;;
48751;SDS011;34544;48.836;9.174;2023-09-19T10:10:56;2.72;;;1.13;;
48751;SDS011;34544;48.836;9.174;2023-09-19T10:13:30;2.42;;;1.25;;
48751;SDS011;34544;48.836;9.174;2023-09-19T10:15:59;2.25;;;0.95;;
48751;SDS011;34544;48.836;9.174;2023-09-19T10:18:32;3.42;;;2.15;;
48751;SDS011;34544;48.836;9.174;2023-09-19T10:21:02;2.25;;;0.90;;
48751;SDS011;34544;48.836;9.174;2023-09-19T10:23:30;2.42;;;1.10;;
48751;SDS011;34544;48.836;9.174;2023-09-19T10:25:59;2.55;;;1.10;;
48751;SDS011;34544;48.836;9.174;2023-09-19T10:28:27;1.98;;;0.75;;
48751;SDS011;34544;48.836;9.174;2023-09-19T10:30:55;0.93;;;0.80;;
48751;SDS011;34544;48.836;9.174;2023-09-19T10:33:23;1.35;;;0.80;;
48751;SDS011;34544;48.836;9.174;2023-09-19T10:35:55;2.05;;;1.00;;
48751;SDS011;34544;48.836;9.174;2023-09-19T10:38:25;3.15;;;1.58;;
48751;SDS011;34544;48.836;9.174;2023-09-19T10:40:54;1.95;;;0.90;;
48751;SDS011;34544;48.836;9.174;2023-09-19T10:43:25;2.90;;;1.02;;
48751;SDS011;34544;48.836;9.174;2023-09-19T10:45:54;3.00;;;1.10;;
48751;SDS011;34544;48.836;9.174;2023-09-19T10:48:26;1.25;;;0.70;;
48751;SDS011;34544;48.836;9.174;2023-09-19T10:51:09;3.33;;;0.90;;
48751;SDS011;34544;48.836;9.174;2023-09-19T10:53:51;5.07;;;1.45;;
48751;SDS011;34544;48.836;9.174;2023-09-19T10:56:21;13.10;;;1.15;;
48751;SDS011;34544;48.836;9.174;2023-09-19T10:59:04;2.50;;;0.85;;
48751;SDS011;34544;48.836;9.174;2023-09-19T11:01:45;1.45;;;0.63;;
48751;SDS011;34544;48.836;9.174;2023-09-19T11:07:12;1.52;;;0.63;;
48751;SDS011;34544;48.836;9.174;2023-09-19T11:09:46;0.68;;;0.50;;
48751;SDS011;34544;48.836;9.174;2023-09-19T11:14:54;0.68;;;0.50;;
48751;SDS011;34544;48.836;9.174;2023-09-19T11:30:48;1.23;;;0.65;;
48751;SDS011;34544;48.836;9.174;2023-09-19T11:33:15;1.90;;;0.63;;
48751;SDS011;34544;48.836;9.174;2023-09-19T11:35:58;0.73;;;0.60;;
48751;SDS011;34544;48.836;9.174;2023-09-19T11:43:51;2.42;;;0.90;;
48751;SDS011;34544;48.836;9.174;2023-09-19T11:46:28;2.28;;;1.13;;
48751;SDS011;34544;48.836;9.174;2023-09-19T11:49:07;1.05;;;0.60;;
48751;SDS011;34544;48.836;9.174;2023-09-19T11:51:44;2.88;;;0.95;;
48751;SDS011;34544;48.836;9.174;2023-09-19T11:54:11;2.10;;;1.25;;
48751;SDS011;34544;48.836;9.174;2023-09-19T11:56:44;1.00;;;0.65;;
48751;SDS011;34544;48.836;9.174;2023-09-19T11:59:10;2.33;;;0.82;;
48751;SDS011;34544;48.836;9.174;2023-09-19T12:01:37;4.18;;;1.30;;
48751;SDS011;34544;48.836;9.174;2023-09-19T12:04:11;1.77;;;0.70;;
48751;SDS011;34544;48.836;9.174;2023-09-19T12:06:37;4.68;;;1.05;;
48751;SDS011;34544;48.836;9.174;2023-09-19T12:09:07;4.95;;;1.20;;
48751;SDS011;34544;48.836;9.174;2023-09-19T12:11:42;1.83;;;1.00;;
48751;SDS011;34544;48.836;9.174;2023-09-19T12:14:10;2.20;;;0.63;;
48751;SDS011;34544;48.836;9.174;2023-09-19T12:16:36;1.50;;;0.70;;
48751;SDS011;34544;48.836;9.174;2023-09-19T12:19:19;2.63;;;0.88;;
48751;SDS011;34544;48.836;9.174;2023-09-19T12:21:53;2.80;;;0.70;;
48751;SDS011;34544;48.836;9.174;2023-09-19T12:24:23;1.92;;;0.80;;
48751;SDS011;34544;48.836;9.174;2023-09-19T12:26:54;3.50;;;0.80;;
48751;SDS011;34544;48.836;9.174;2023-09-19T12:29:22;2.42;;;1.10;;
48751;SDS011;34544;48.836;9.174;2023-09-19T12:31:51;2.63;;;1.08;;
48751;SDS011;34544;48.836;9.174;2023-09-19T12:34:29;0.90;;;0.80;;
48751;SDS011;34544;48.836;9.174;2023-09-19T12:37:05;2.05;;;0.80;;
48751;SDS011;34544;48.836;9.174;2023-09-19T12:39:51;0.95;;;0.68;;
48751;SDS011;34544;48.836;9.174;2023-09-19T12:42:25;1.30;;;0.85;;
48751;SDS011;34544;48.836;9.174;2023-09-19T12:44:57;3.67;;;0.80;;
48751;SDS011;34544;48.836;9.174;2023-09-19T12:47:26;0.98;;;0.60;;
48751;SDS011;34544;48.836;9.174;2023-09-19T12:55:25;1.58;;;0.65;;
48751;SDS011;34544;48.836;9.174;2023-09-19T13:00:42;1.75;;;0.68;;
48751;SDS011;34544;48.836;9.174;2023-09-19T13:03:25;0.93;;;0.60;;
48751;SDS011;34544;48.836;9.174;2023-09-19T13:05:54;1.27;;;0.82;;
48751;SDS011;34544;48.836;9.174;2023-09-19T13:08:21;3.15;;;1.00;;
48751;SDS011;34544;48.836;9.174;2023-09-19T13:10:59;1.33;;;0.75;;
48751;SDS011;34544;48.836;9.174;2023-09-19T13:13:40;3.08;;;0.90;;
48751;SDS011;34544;48.836;9.174;2023-09-19T13:16:14;2.42;;;0.75;;
48751;SDS011;34544;48.836;9.174;2023-09-19T13:18:45;2.15;;;0.88;;
48751;SDS011;34544;48.836;9.174;2023-09-19T13:21:15;0.50;;;0.50;;
48751;SDS011;34544;48.836;9.174;2023-09-19T13:23:49;3.42;;;0.85;;
48751;SDS011;34544;48.836;9.174;2023-09-19T13:26:19;2.28;;;0.77;;
48751;SDS011;34544;48.836;9.174;2023-09-19T13:28:45;1.05;;;0.85;;
48751;SDS011;34544;48.836;9.174;2023-09-19T13:31:14;1.02;;;0.70;;
48751;SDS011;34544;48.836;9.174;2023-09-19T13:33:44;2.70;;;0.90;;
48751;SDS011;34544;48.836;9.174;2023-09-19T13:36:11;1.45;;;0.82;;
48751;SDS011;34544;48.836;9.174;2023-09-19T13:38:38;2.88;;;0.70;;
48751;SDS011;34544;48.836;9.174;2023-09-19T13:41:05;1.30;;;0.90;;
48751;SDS011;34544;48.836;9.174;2023-09-19T13:43:31;3.50;;;0.93;;
48751;SDS011;34544;48.836;9.174;2023-09-19T13:45:57;1.00;;;0.90;;
48751;SDS011;34544;48.836;9.174;2023-09-19T13:48:23;1.10;;;0.80;;
48751;SDS011;34544;48.836;9.174;2023-09-19T13:50:49;2.05;;;0.80;;
48751;SDS011;34544;48.836;9.174;2023-09-19T13:53:15;2.65;;;0.88;;
48751;SDS011;34544;48.836;9.174;2023-09-19T13:55:42;1.02;;;0.90;;
48751;SDS011;34544;48.836;9.174;2023-09-19T13:58:07;3.05;;;0.90;;
48751;SDS011;34544;48.836;9.174;2023-09-19T14:00:36;1.02;;;0.85;;
48751;SDS011;34544;48.836;9.174;2023-09-19T14:03:01;1.23;;;0.52;;
48751;SDS011;34544;48.836;9.174;2023-09-19T14:05:29;1.50;;;0.63;;
48751;SDS011;34544;48.836;9.174;2023-09-19T14:07:55;2.28;;;1.10;;
48751;SDS011;34544;48.836;9.174;2023-09-19T14:10:21;2.10;;;0.88;;
48751;SDS011;34544;48.836;9.174;2023-09-19T14:12:47;2.22;;;1.10;;
48751;SDS011;34544;48.836;9.174;2023-09-19T14:15:12;5.28;;;1.40;;
48751;SDS011;34544;48.836;9.174;2023-09-19T14:17:39;2.53;;;1.00;;
48751;SDS011;34544;48.836;9.174;2023-09-19T14:20:10;1.48;;;0.75;;
48751;SDS011;34544;48.836;9.174;2023-09-19T14:22:36;1.10;;;0.98;;
48751;SDS011;34544;48.836;9.174;2023-09-19T14:25:02;0.80;;;0.60;;
48751;SDS011;34544;48.836;9.174;2023-09-19T14:27:29;1.50;;;0.98;;
48751;SDS011;34544;48.836;9.174;2023-09-19T14:29:55;0.95;;;0.70;;
48751;SDS011;34544;48.836;9.174;2023-09-19T14:32:22;1.90;;;1.33;;
48751;SDS011;34544;48.836;9.174;2023-09-19T14:34:48;3.13;;;1.08;;
48751;SDS011;34544;48.836;9.174;2023-09-19T14:37:14;1.20;;;1.05;;
48751;SDS011;34544;48.836;9.174;2023-09-19T14:39:41;1.38;;;0.68;;
48751;SDS011;34544;48.836;9.174;2023-09-19T14:42:10;7.75;;;1.20;;
48751;SDS011;34544;48.836;9.174;2023-09-19T14:44:36;2.10;;;1.05;;
48751;SDS011;34544;48.836;9.174;2023-09-19T14:47:05;1.63;;;0.90;;
48751;SDS011;34544;48.836;9.174;2023-09-19T14:49:35;1.55;;;1.08;;
48751;SDS011;34544;48.836;9.174;2023-09-19T14:52:08;1.95;;;1.05;;
48751;SDS011;34544;48.836;9.174;2023-09-19T14:54:35;1.13;;;1.00;;
48751;SDS011;34544;48.836;9.174;2023-09-19T14:57:03;1.42;;;0.85;;
48751;SDS011;34544;48.836;9.174;2023-09-19T14:59:32;1.17;;;0.75;;
48751;SDS011;34544;48.836;9.174;2023-09-19T15:01:59;1.15;;;0.80;;
48751;SDS011;34544;48.836;9.174;2023-09-19T15:04:25;10.77;;;2.38;;
48751;SDS011;34544;48.836;9.174;2023-09-19T15:06:52;1.42;;;0.90;;
48751;SDS011;34544;48.836;9.174;2023-09-19T15:09:20;1.35;;;0.85;;
48751;SDS011;34544;48.836;9.174;2023-09-19T15:11:51;1.30;;;0.80;;
48751;SDS011;34544;48.836;9.174;2023-09-19T15:14:17;1.77;;;0.85;;
48751;SDS011;34544;48.836;9.174;2023-09-19T15:16:43;1.65;;;0.80;;
48751;SDS011;34544;48.836;9.174;2023-09-19T15:19:09;2.17;;;0.90;;
48751;SDS011;34544;48.836;9.174;2023-09-19T15:21:35;2.63;;;0.80;;
48751;SDS011;34544;48.836;9.174;2023-09-19T15:24:02;1.48;;;0.80;;
48751;SDS011;34544;48.836;9.174;2023-09-19T15:26:28;1.85;;;1.08;;
48751;SDS011;34544;48.836;9.174;2023-09-19T15:28:55;6.97;;;0.80;;
48751;SDS011;34544;48.836;9.174;2023-09-19T15:31:21;1.65;;;0.85;;
48751;SDS011;34544;48.836;9.174;2023-09-19T15:33:47;1.63;;;1.00;;
48751;SDS011;34544;48.836;9.174;2023-09-19T15:36:13;2.00;;;0.70;;
48751;SDS011;34544;48.836;9.174;2023-09-19T15:38:56;1.92;;;0.70;;
48751;SDS011;34544;48.836;9.174;2023-09-19T15:41:22;1.92;;;0.82;;
48751;SDS011;34544;48.836;9.174;2023-09-19T15:43:55;1.08;;;0.75;;
48751;SDS011;34544;48.836;9.174;2023-09-19T15:46:22;1.83;;;0.93;;
48751;SDS011;34544;48.836;9.174;2023-09-19T15:48:48;0.85;;;0.52;;